Time;durP1;ratioP1;P1;durP2;ratioP2;P2;SDS_P1;SDS_P2;PMS_P1;PMS_P2;Temp;Humidity;BMP_temperature;BMP_pressure;BME280_temperature;BME280_humidity;BME280_pressure;Samples;Min_cycle;Max_cycle;Signal;HPM_P1;HPM_P2
2021/08/04 00:00:02;;;;;;;2.78;0.82;;;12.10;99.90;;;;;;5094340;28;20048;-77
2021/08/04 00:02:28;;;;;;;3.50;0.95;;;12.00;99.90;;;;;;5094266;28;20016;-77
2021/08/04 00:04:53;;;;;;;1.23;0.45;;;12.00;99.90;;;;;;5076194;28;20020;-76
2021/08/04 00:07:19;;;;;;;8.55;1.02;;;12.00;99.90;;;;;;5076817;28;20019;-78
2021/08/04 00:09:45;;;;;;;2.10;0.98;;;12.00;99.90;;;;;;5094655;28;20373;-77
2021/08/04 00:12:10;;;;;;;1.08;0.75;;;11.90;99.90;;;;;;5075806;28;20020;-76
2021/08/04 00:14:36;;;;;;;1.45;0.73;;;11.90;99.90;;;;;;5093743;28;20027;-76
2021/08/04 00:17:02;;;;;;;4.13;0.75;;;11.90;99.90;;;;;;5075524;28;20039;-76
2021/08/04 00:19:28;;;;;;;2.90;0.90;;;11.80;99.90;;;;;;5094195;28;20038;-76
2021/08/04 00:21:53;;;;;;;0.50;0.30;;;11.80;99.90;;;;;;5075930;28;20036;-76
2021/08/04 00:24:19;;;;;;;1.38;0.73;;;11.80;99.90;;;;;;5075740;28;20021;-77
2021/08/04 00:26:44;;;;;;;2.85;0.55;;;11.70;99.90;;;;;;5075701;28;20035;-77
2021/08/04 00:29:10;;;;;;;1.40;0.63;;;11.70;99.90;;;;;;5093839;28;20036;-77
2021/08/04 00:31:36;;;;;;;1.52;0.40;;;11.60;99.90;;;;;;5093581;28;20032;-77
2021/08/04 00:34:01;;;;;;;2.65;0.47;;;11.60;99.90;;;;;;5094583;28;20048;-81
2021/08/04 00:36:27;;;;;;;1.30;0.60;;;11.60;99.90;;;;;;5093720;28;20032;-76
2021/08/04 00:38:52;;;;;;;1.10;0.40;;;11.50;99.90;;;;;;5094373;28;20016;-78
2021/08/04 00:41:18;;;;;;;3.25;0.88;;;11.50;99.90;;;;;;5076910;28;20070;-79
2021/08/04 00:43:44;;;;;;;2.90;0.43;;;11.50;99.90;;;;;;5095200;28;20028;-79
2021/08/04 00:46:14;;;;;;;1.88;0.52;;;11.50;99.90;;;;;;5076740;28;20487;-78
2021/08/04 00:48:40;;;;;;;1.98;0.50;;;11.40;99.90;;;;;;5095675;28;20066;-78
2021/08/04 00:51:06;;;;;;;1.08;0.50;;;11.40;99.90;;;;;;5076826;28;20063;-78
2021/08/04 00:53:32;;;;;;;1.73;0.73;;;11.40;99.90;;;;;;5094190;28;20077;-78
2021/08/04 00:55:59;;;;;;;1.85;0.77;;;11.30;99.90;;;;;;5094923;28;20469;-81
2021/08/04 00:58:40;;;;;;;0.63;0.28;;;11.30;99.90;;;;;;5076934;28;20020;-77
2021/08/04 01:01:13;;;;;;;3.13;0.40;;;11.30;99.90;;;;;;5075856;28;20032;-78
2021/08/04 01:03:43;;;;;;;1.27;0.45;;;11.30;99.90;;;;;;5094038;28;20027;-78
2021/08/04 01:06:21;;;;;;;1.42;0.30;;;11.20;99.90;;;;;;5075802;28;20020;-78
2021/08/04 01:08:55;;;;;;;1.60;0.35;;;11.20;99.90;;;;;;5093608;28;20032;-76
2021/08/04 01:11:24;;;;;;;1.85;0.40;;;11.20;99.90;;;;;;5093370;28;20512;-76
2021/08/04 01:13:52;;;;;;;3.03;0.82;;;11.10;99.90;;;;;;5093300;28;20020;-76
2021/08/04 01:16:28;;;;;;;1.90;0.50;;;11.10;99.90;;;;;;5075176;28;20020;-76
2021/08/04 01:19:16;;;;;;;0.75;0.35;;;11.10;99.90;;;;;;5094011;28;20024;-79
2021/08/04 01:22:08;;;;;;;1.80;0.53;;;11.10;99.90;;;;;;5075550;28;20436;-79
2021/08/04 01:24:36;;;;;;;3.97;0.98;;;11.10;99.90;;;;;;5079230;28;20302;-79
2021/08/04 01:27:03;;;;;;;3.33;0.65;;;11.10;99.90;;;;;;5095760;28;20469;-79
2021/08/04 01:29:29;;;;;;;1.48;0.50;;;11.10;99.90;;;;;;5097734;28;20058;-76
2021/08/04 01:32:01;;;;;;;1.13;0.40;;;11.10;99.90;;;;;;5096998;28;20480;-77
2021/08/04 01:34:29;;;;;;;3.70;0.75;;;11.10;99.90;;;;;;5097173;28;20078;-77
2021/08/04 01:36:56;;;;;;;3.47;1.08;;;11.10;99.90;;;;;;5079070;28;20028;-77
2021/08/04 01:39:22;;;;;;;2.13;0.70;;;11.10;99.90;;;;;;5097080;28;20020;-77
2021/08/04 01:41:51;;;;;;;2.67;0.88;;;11.20;99.90;;;;;;5079065;28;20500;-78
2021/08/04 01:44:18;;;;;;;2.58;1.13;;;11.20;99.90;;;;;;5080571;28;20030;-78
2021/08/04 01:46:44;;;;;;;2.72;1.23;;;11.30;99.90;;;;;;5081236;28;20024;-78
2021/08/04 01:49:11;;;;;;;1.77;1.27;;;11.40;99.90;;;;;;5080395;28;20024;-78
2021/08/04 01:51:37;;;;;;;2.72;1.17;;;11.40;99.90;;;;;;5080527;28;20043;-79
2021/08/04 01:54:03;;;;;;;3.30;1.45;;;11.50;99.90;;;;;;5079245;28;20020;-79
2021/08/04 01:56:30;;;;;;;4.88;1.10;;;11.50;99.90;;;;;;5097523;28;20028;-79
2021/08/04 01:58:55;;;;;;;6.07;1.92;;;11.60;99.90;;;;;;5079112;28;20023;-79
2021/08/04 02:01:25;;;;;;;4.25;1.40;;;12.00;99.90;;;;;;5079291;28;20052;-79
2021/08/04 02:03:52;;;;;;;5.53;1.30;;;11.60;99.90;;;;;;5078629;28;20048;-76
2021/08/04 02:06:38;;;;;;;2.67;1.42;;;11.70;99.90;;;;;;5096447;28;20024;-77
2021/08/04 02:09:28;;;;;;;3.78;1.13;;;11.60;99.90;;;;;;5078372;28;20116;-77
2021/08/04 02:12:09;;;;;;;4.20;1.10;;;11.60;99.90;;;;;;5096338;28;20028;-77
2021/08/04 02:14:58;;;;;;;4.57;1.58;;;11.60;99.90;;;;;;5096576;28;20020;-77
2021/08/04 02:17:35;;;;;;;2.38;0.95;;;11.50;99.90;;;;;;5096911;28;20378;-77
2021/08/04 02:20:06;;;;;;;2.47;1.02;;;11.50;99.90;;;;;;5078240;28;20020;-76
2021/08/04 02:22:56;;;;;;;1.85;1.08;;;11.50;99.90;;;;;;5096423;28;20032;-78
2021/08/04 02:25:39;;;;;;;4.55;1.35;;;11.40;99.90;;;;;;5097006;28;20028;-78
2021/08/04 02:28:09;;;;;;;3.40;1.20;;;11.30;99.90;;;;;;5096670;28;20020;-78
2021/08/04 02:30:36;;;;;;;4.07;1.40;;;11.30;99.90;;;;;;5096887;28;20114;-78
2021/08/04 02:33:02;;;;;;;2.53;1.27;;;11.40;99.90;;;;;;5096594;28;20098;-78
2021/08/04 02:35:28;;;;;;;3.70;1.00;;;11.50;99.90;;;;;;5078370;28;20031;-78
2021/08/04 02:37:54;;;;;;;2.53;0.98;;;11.50;99.90;;;;;;5077346;28;20462;-78
2021/08/04 02:40:20;;;;;;;2.95;1.63;;;11.50;99.90;;;;;;5096312;28;20099;-78
2021/08/04 02:42:48;;;;;;;2.78;1.15;;;11.50;99.90;;;;;;5096603;28;20030;-78
2021/08/04 02:45:14;;;;;;;2.20;1.38;;;11.60;99.90;;;;;;5097137;28;20024;-77
2021/08/04 02:47:40;;;;;;;2.60;1.45;;;11.60;99.90;;;;;;5095818;28;20027;-76
2021/08/04 02:50:08;;;;;;;2.85;1.42;;;11.60;99.90;;;;;;5095498;28;20065;-76
2021/08/04 02:52:34;;;;;;;3.72;1.00;;;11.50;99.90;;;;;;5095882;28;20012;-76
2021/08/04 02:55:00;;;;;;;3.10;1.27;;;11.50;99.90;;;;;;5078474;28;20012;-76
2021/08/04 02:57:26;;;;;;;3.30;0.80;;;11.60;99.90;;;;;;5077482;28;20028;-76
2021/08/04 02:59:52;;;;;;;2.22;1.30;;;11.60;99.90;;;;;;5095734;28;20473;-76
2021/08/04 03:02:18;;;;;;;3.53;1.40;;;11.60;99.90;;;;;;5095779;28;20084;-76
2021/08/04 03:04:44;;;;;;;2.85;1.13;;;11.60;99.90;;;;;;5095494;28;20024;-76
2021/08/04 03:07:09;;;;;;;2.53;1.20;;;11.60;99.90;;;;;;5095320;28;20123;-76
2021/08/04 03:09:35;;;;;;;3.28;0.93;;;11.60;99.90;;;;;;5077894;28;20032;-81
2021/08/04 03:12:00;;;;;;;2.75;0.95;;;11.60;99.90;;;;;;5095573;28;20481;-77
2021/08/04 03:14:26;;;;;;;2.17;0.90;;;11.60;99.90;;;;;;5095193;28;20028;-76
2021/08/04 03:16:51;;;;;;;2.28;1.00;;;11.60;99.90;;;;;;5095230;28;20054;-76
2021/08/04 03:19:17;;;;;;;5.30;1.27;;;11.60;99.90;;;;;;5095180;28;20031;-76
2021/08/04 03:21:43;;;;;;;3.50;1.40;;;11.70;99.90;;;;;;5094961;28;20555;-76
2021/08/04 03:24:09;;;;;;;8.02;2.00;;;11.60;99.90;;;;;;5095740;28;20102;-77
2021/08/04 03:26:35;;;;;;;3.95;1.67;;;11.60;99.90;;;;;;5077997;28;20489;-78
2021/08/04 03:29:01;;;;;;;3.40;1.75;;;11.70;99.90;;;;;;5095407;28;20093;-78
2021/08/04 03:31:26;;;;;;;2.47;1.40;;;11.70;99.90;;;;;;5095640;28;20107;-78
2021/08/04 03:33:52;;;;;;;4.03;1.58;;;11.70;99.90;;;;;;5095710;28;20482;-78
2021/08/04 03:36:18;;;;;;;3.15;1.35;;;11.70;99.90;;;;;;5076998;28;20028;-77
2021/08/04 03:38:43;;;;;;;5.45;2.70;;;11.70;99.90;;;;;;5076778;28;20008;-77
2021/08/04 03:41:09;;;;;;;4.90;2.00;;;11.70;99.90;;;;;;5094963;28;20024;-76
2021/08/04 03:43:35;;;;;;;3.65;1.98;;;11.70;99.90;;;;;;5094942;28;20385;-76
2021/08/04 03:46:01;;;;;;;9.10;2.63;;;11.70;99.90;;;;;;5094669;28;20473;-76
2021/08/04 03:48:26;;;;;;;3.28;1.77;;;11.70;99.90;;;;;;5095387;28;20486;-78
2021/08/04 03:50:52;;;;;;;5.22;1.63;;;11.60;99.90;;;;;;5095631;28;20035;-79
2021/08/04 03:53:17;;;;;;;2.15;1.38;;;11.70;99.90;;;;;;5095924;28;20024;-79
2021/08/04 03:55:43;;;;;;;3.45;1.58;;;11.70;99.90;;;;;;5078173;28;20012;-77
2021/08/04 03:58:09;;;;;;;2.65;1.55;;;11.70;99.90;;;;;;5094871;28;20020;-77
2021/08/04 04:00:34;;;;;;;3.65;1.50;;;11.70;99.90;;;;;;5077142;28;20093;-79
2021/08/04 04:03:00;;;;;;;3.05;1.48;;;11.70;99.90;;;;;;5077180;28;20054;-79
2021/08/04 04:05:26;;;;;;;2.95;1.65;;;11.70;99.90;;;;;;5094849;28;20028;-76
2021/08/04 04:07:51;;;;;;;4.40;2.05;;;11.60;99.90;;;;;;5094265;28;20051;-76
2021/08/04 04:10:17;;;;;;;2.28;1.50;;;11.60;99.90;;;;;;5094465;28;20047;-76
2021/08/04 04:12:43;;;;;;;3.92;1.58;;;11.50;99.90;;;;;;5094755;28;20031;-79
2021/08/04 04:15:08;;;;;;;6.45;2.20;;;11.50;99.90;;;;;;5077274;28;20031;-79
2021/08/04 04:17:34;;;;;;;2.45;1.45;;;11.50;99.90;;;;;;5094937;28;20024;-77
2021/08/04 04:20:00;;;;;;;4.60;2.13;;;11.40;99.90;;;;;;5094332;28;20470;-78
2021/08/04 04:22:25;;;;;;;6.38;2.00;;;11.40;99.90;;;;;;5076709;28;20043;-78
2021/08/04 04:24:51;;;;;;;6.47;1.48;;;11.40;99.90;;;;;;5078393;28;20035;-78
2021/08/04 04:27:16;;;;;;;2.78;1.45;;;11.40;99.90;;;;;;5095174;28;20390;-80
2021/08/04 04:29:42;;;;;;;4.20;1.67;;;11.40;99.90;;;;;;5094980;28;20059;-79
2021/08/04 04:32:09;;;;;;;5.45;2.55;;;11.30;99.90;;;;;;5094974;28;20020;-80
2021/08/04 04:34:34;;;;;;;4.28;1.98;;;11.30;99.90;;;;;;5077212;28;20370;-76
2021/08/04 04:37:00;;;;;;;2.95;1.65;;;11.30;99.90;;;;;;5094117;28;20091;-77
2021/08/04 04:39:26;;;;;;;2.80;1.55;;;11.30;99.90;;;;;;5076455;28;20478;-80
2021/08/04 04:41:52;;;;;;;6.82;1.50;;;11.30;99.90;;;;;;5076587;28;20020;-78
2021/08/04 04:44:18;;;;;;;2.20;1.48;;;11.30;99.90;;;;;;5095225;28;20024;-76
2021/08/04 04:46:43;;;;;;;3.85;2.13;;;11.40;99.90;;;;;;5075868;28;20080;-80
2021/08/04 04:49:09;;;;;;;3.08;1.77;;;11.40;99.90;;;;;;5076872;28;20020;-79
2021/08/04 04:51:34;;;;;;;3.28;1.90;;;11.50;99.90;;;;;;5095226;28;20028;-80
2021/08/04 04:54:00;;;;;;;8.07;2.10;;;11.50;99.90;;;;;;5077001;28;20046;-80
2021/08/04 04:56:26;;;;;;;4.45;1.92;;;11.60;99.90;;;;;;5094373;28;20043;-77
2021/08/04 04:58:51;;;;;;;5.40;1.95;;;11.60;99.90;;;;;;5093498;28;20021;-77
2021/08/04 05:01:17;;;;;;;5.72;2.17;;;11.70;99.90;;;;;;5075111;28;20455;-77
2021/08/04 05:03:42;;;;;;;6.68;1.90;;;11.80;99.90;;;;;;5094296;28;20474;-78
2021/08/04 05:06:08;;;;;;;5.38;2.20;;;11.80;99.90;;;;;;5094169;28;20034;-77
2021/08/04 05:08:33;;;;;;;3.50;1.95;;;11.90;99.90;;;;;;5075437;28;20031;-77
2021/08/04 05:10:59;;;;;;;4.20;1.90;;;11.90;99.90;;;;;;5075231;28;20024;-77
2021/08/04 05:13:24;;;;;;;3.10;2.05;;;12.00;99.90;;;;;;5093476;28;20110;-79
2021/08/04 05:15:50;;;;;;;6.50;1.77;;;12.10;99.90;;;;;;5075954;28;20028;-78
2021/08/04 05:18:16;;;;;;;2.80;1.70;;;12.20;99.90;;;;;;5076228;28;20456;-78
2021/08/04 05:20:41;;;;;;;4.18;2.03;;;12.30;99.90;;;;;;5093651;28;20032;-77
2021/08/04 05:23:07;;;;;;;4.68;1.95;;;12.40;99.90;;;;;;5093953;28;20028;-77
2021/08/04 05:25:33;;;;;;;5.85;2.45;;;12.50;99.90;;;;;;5075313;28;20489;-77
2021/08/04 05:27:58;;;;;;;4.03;2.20;;;12.60;99.90;;;;;;5093832;28;20475;-76
2021/08/04 05:30:24;;;;;;;4.22;2.30;;;12.70;99.90;;;;;;5093080;28;20035;-76
2021/08/04 05:32:49;;;;;;;6.80;2.40;;;12.80;99.90;;;;;;5093824;28;20028;-80
2021/08/04 05:35:15;;;;;;;6.78;2.20;;;12.90;99.90;;;;;;5075284;28;20023;-77
2021/08/04 05:37:41;;;;;;;7.20;2.72;;;13.00;99.90;;;;;;5093669;28;20017;-78
2021/08/04 05:40:07;;;;;;;5.47;2.58;;;13.10;99.90;;;;;;5093235;28;20016;-76
2021/08/04 05:42:33;;;;;;;7.80;2.92;;;13.20;99.90;;;;;;5075004;28;20397;-76
2021/08/04 05:44:58;;;;;;;4.05;2.17;;;13.30;99.90;;;;;;5075036;28;20016;-77
2021/08/04 05:47:24;;;;;;;4.57;1.88;;;13.40;99.90;;;;;;5094222;28;20035;-78
2021/08/04 05:49:49;;;;;;;5.45;2.53;;;13.40;99.90;;;;;;5093532;28;20031;-77
2021/08/04 05:52:15;;;;;;;4.05;2.08;;;13.70;99.90;;;;;;5093157;28;20393;-78
2021/08/04 05:54:41;;;;;;;5.63;1.88;;;13.60;99.90;;;;;;5094683;28;20028;-78
2021/08/04 05:57:07;;;;;;;5.15;2.05;;;13.60;99.90;;;;;;5095448;28;20035;-78
2021/08/04 05:59:32;;;;;;;3.63;1.77;;;13.60;99.90;;;;;;5094624;28;20500;-77
2021/08/04 06:01:58;;;;;;;6.40;2.70;;;13.60;99.90;;;;;;5075679;28;20107;-78
2021/08/04 06:04:24;;;;;;;5.13;2.28;;;13.60;99.90;;;;;;5075507;28;20031;-79
2021/08/04 06:06:49;;;;;;;3.83;2.00;;;13.60;99.90;;;;;;5093541;28;20024;-79
2021/08/04 06:09:15;;;;;;;4.65;1.98;;;13.60;99.90;;;;;;5093657;28;20020;-78
2021/08/04 06:11:41;;;;;;;7.13;1.90;;;13.60;99.90;;;;;;5093080;28;20446;-78
2021/08/04 06:14:06;;;;;;;3.90;1.95;;;13.60;99.90;;;;;;5076815;28;20081;-77
2021/08/04 06:16:32;;;;;;;4.53;2.35;;;13.70;99.90;;;;;;5078271;28;20020;-76
2021/08/04 06:18:58;;;;;;;4.85;2.20;;;13.70;99.90;;;;;;5078246;28;20483;-76
2021/08/04 06:21:26;;;;;;;3.47;2.10;;;13.70;99.90;;;;;;5079164;28;20081;-78
2021/08/04 06:23:52;;;;;;;5.40;2.65;;;13.80;99.90;;;;;;5096840;28;20035;-78
2021/08/04 06:26:18;;;;;;;4.13;1.90;;;13.80;99.90;;;;;;5078060;28;20024;-76
2021/08/04 06:28:44;;;;;;;3.50;2.03;;;13.90;99.90;;;;;;5109668;22;20042;-80
2021/08/04 06:31:10;;;;;;;3.58;1.90;;;13.90;99.90;;;;;;5079056;28;20028;-80
2021/08/04 06:33:36;;;;;;;4.90;2.63;;;13.90;99.90;;;;;;5096689;28;20012;-76
2021/08/04 06:36:02;;;;;;;4.75;2.38;;;13.90;99.90;;;;;;5095999;28;20035;-76
2021/08/04 06:38:28;;;;;;;3.55;2.30;;;13.90;99.90;;;;;;5095893;28;20028;-76
2021/08/04 06:40:53;;;;;;;6.15;2.17;;;14.00;99.90;;;;;;5096019;28;20111;-78
2021/08/04 06:43:19;;;;;;;4.70;2.28;;;14.10;99.90;;;;;;5096964;28;20024;-78
2021/08/04 06:45:45;;;;;;;3.60;2.22;;;14.30;99.90;;;;;;5078807;28;20111;-78
2021/08/04 06:48:10;;;;;;;4.57;2.47;;;14.60;99.90;;;;;;5077800;28;20107;-76
2021/08/04 06:50:37;;;;;;;4.25;2.35;;;14.80;99.90;;;;;;5095636;28;20020;-76
2021/08/04 06:53:02;;;;;;;5.28;1.80;;;15.00;99.90;;;;;;5095824;28;20074;-76
2021/08/04 06:55:28;;;;;;;3.70;1.52;;;15.20;99.90;;;;;;5095652;28;20020;-76
2021/08/04 06:57:53;;;;;;;3.90;2.00;;;15.30;99.90;;;;;;5096700;28;20024;-78
2021/08/04 07:00:19;;;;;;;6.38;1.88;;;15.50;99.90;;;;;;5109132;22;20054;-78
2021/08/04 07:02:45;;;;;;;4.70;2.03;;;15.60;99.90;;;;;;5095962;28;20099;-78
2021/08/04 07:05:10;;;;;;;3.05;1.38;;;15.70;99.90;;;;;;5095896;28;20069;-78
2021/08/04 07:07:36;;;;;;;4.28;2.17;;;15.80;99.90;;;;;;5095704;28;20028;-77
2021/08/04 07:10:02;;;;;;;9.68;2.25;;;16.00;99.90;;;;;;5096130;28;20027;-78
2021/08/04 07:12:27;;;;;;;3.72;1.50;;;16.10;99.90;;;;;;5079105;28;20039;-78
2021/08/04 07:14:53;;;;;;;4.13;1.83;;;16.20;99.90;;;;;;5096558;28;20025;-78
2021/08/04 07:17:18;;;;;;;4.22;1.20;;;16.30;99.90;;;;;;5077520;28;20023;-76
2021/08/04 07:19:44;;;;;;;3.95;1.95;;;16.40;99.90;;;;;;5095752;28;20012;-78
2021/08/04 07:22:09;;;;;;;6.43;2.13;;;16.50;99.90;;;;;;5078626;28;20020;-77
2021/08/04 07:24:35;;;;;;;4.18;1.88;;;16.50;99.90;;;;;;5095643;28;20059;-78
2021/08/04 07:27:01;;;;;;;3.35;1.58;;;16.50;99.90;;;;;;5095474;28;20032;-80
2021/08/04 07:29:26;;;;;;;4.25;2.08;;;16.40;99.90;;;;;;5097145;28;20026;-78
2021/08/04 07:31:52;;;;;;;4.63;1.85;;;16.40;99.90;;;;;;5096131;28;20016;-78
2021/08/04 07:34:22;;;;;;;2.92;2.03;;;16.30;99.90;;;;;;5077758;28;20020;-77
2021/08/04 07:36:48;;;;;;;3.17;1.60;;;16.30;99.90;;;;;;5095120;28;20016;-77
2021/08/04 07:39:14;;;;;;;4.50;2.15;;;16.50;99.90;;;;;;5095341;28;20025;-80
2021/08/04 07:41:40;;;;;;;5.03;2.15;;;16.70;99.90;;;;;;5095361;28;20036;-78
2021/08/04 07:44:06;;;;;;;3.17;1.90;;;16.80;99.90;;;;;;5077425;28;20020;-78
2021/08/04 07:46:31;;;;;;;3.50;1.92;;;17.00;99.90;;;;;;5095534;28;20457;-78
2021/08/04 07:48:57;;;;;;;3.55;2.38;;;17.10;99.90;;;;;;5094733;28;20439;-77
2021/08/04 07:51:22;;;;;;;2.95;1.52;;;17.30;99.90;;;;;;5077043;28;20028;-80
2021/08/04 07:53:48;;;;;;;3.35;1.60;;;17.50;99.90;;;;;;5077011;28;20016;-78
2021/08/04 07:56:19;;;;;;;4.43;1.48;;;17.70;99.90;;;;;;5076762;28;20046;-80
2021/08/04 07:58:46;;;;;;;3.25;1.65;;;17.80;99.90;;;;;;5095131;28;20027;-78
2021/08/04 08:01:11;;;;;;;2.00;1.20;;;17.90;99.90;;;;;;5076290;28;20532;-76
2021/08/04 08:03:37;;;;;;;2.83;1.80;;;18.10;99.90;;;;;;5094644;28;20020;-77
2021/08/04 08:06:02;;;;;;;1.65;1.05;;;18.20;99.90;;;;;;5095463;22;20048;-80
2021/08/04 08:08:28;;;;;;;1.75;1.08;;;18.30;99.90;;;;;;5076701;28;20024;-77
2021/08/04 08:10:54;;;;;;;3.05;0.80;;;18.40;99.90;;;;;;5076158;28;20381;-78
2021/08/04 08:13:20;;;;;;;2.15;1.05;;;18.50;99.90;;;;;;5094349;28;20043;-77
2021/08/04 08:15:46;;;;;;;4.13;0.90;;;18.60;99.90;;;;;;5094284;28;20099;-77
2021/08/04 08:18:12;;;;;;;2.15;1.02;;;18.70;99.90;;;;;;5076223;28;20020;-77
2021/08/04 08:20:40;;;;;;;4.78;1.20;;;18.80;99.90;;;;;;5095184;28;20031;-78
2021/08/04 08:23:06;;;;;;;1.73;0.90;;;18.90;99.90;;;;;;5095056;28;20497;-78
2021/08/04 08:25:32;;;;;;;1.60;0.55;;;19.00;99.90;;;;;;5076629;28;20470;-78
2021/08/04 08:27:59;;;;;;;3.45;1.38;;;19.00;99.90;;;;;;5076591;28;20017;-78
2021/08/04 08:30:25;;;;;;;2.10;0.82;;;19.00;99.90;;;;;;5094085;28;20028;-77
2021/08/04 08:32:50;;;;;;;1.42;0.57;;;19.20;99.90;;;;;;5076098;28;20587;-77
2021/08/04 08:35:17;;;;;;;2.78;0.93;;;19.40;99.90;;;;;;5094496;28;20048;-76
2021/08/04 08:37:44;;;;;;;1.40;0.52;;;19.40;99.90;;;;;;5093315;28;20016;-77
2021/08/04 08:40:12;;;;;;;1.90;0.30;;;19.40;99.90;;;;;;5076162;28;20420;-78
2021/08/04 08:42:42;;;;;;;3.47;0.13;;;19.50;99.90;;;;;;5094289;28;20026;-78
2021/08/04 08:45:09;;;;;;;0.45;0.22;;;19.60;99.90;;;;;;5094199;28;20028;-78
2021/08/04 08:47:37;;;;;;;0.43;0.05;;;19.70;99.90;;;;;;5076143;28;20028;-78
2021/08/04 08:50:04;;;;;;;0.65;0.45;;;19.80;99.90;;;;;;5076252;28;20537;-78
2021/08/04 08:52:29;;;;;;;1.00;0.50;;;20.00;99.90;;;;;;5076087;28;20070;-78
2021/08/04 08:54:55;;;;;;;0.75;0.30;;;20.10;99.90;;;;;;5093853;28;20028;-78
2021/08/04 08:57:20;;;;;;;2.97;0.82;;;20.20;99.90;;;;;;5094376;28;20024;-80
2021/08/04 08:59:46;;;;;;;0.57;0.20;;;20.40;99.90;;;;;;5076707;28;20016;-76
2021/08/04 09:02:11;;;;;;;2.28;0.20;;;20.50;99.90;;;;;;5093548;28;20032;-76
2021/08/04 09:04:37;;;;;;;1.90;0.20;;;20.50;99.90;;;;;;5093647;28;20024;-78
2021/08/04 09:07:03;;;;;;;0.93;0.13;;;20.60;99.90;;;;;;5075838;28;20059;-78
2021/08/04 09:09:35;;;;;;;1.00;0.05;;;20.70;99.90;;;;;;5093729;28;20028;-76
2021/08/04 09:12:05;;;;;;;0.98;0.10;;;20.90;99.90;;;;;;5093383;28;20427;-77
2021/08/04 09:14:34;;;;;;;2.15;0.20;;;20.90;99.90;;;;;;5094215;28;20044;-78
2021/08/04 09:17:11;;;;;;;1.20;0.40;;;20.90;99.90;;;;;;5075644;28;20052;-77
2021/08/04 09:19:42;;;;;;;2.63;0.10;;;21.00;99.90;;;;;;5093962;28;20458;-76
2021/08/04 09:22:09;;;;;;;0.90;0.10;;;21.20;99.90;;;;;;5094007;28;20061;-80
2021/08/04 09:25:09;;;;;;;0.38;0.10;;;21.20;99.90;;;;;;5075587;28;20493;-78
2021/08/04 09:27:43;;;;;;;1.58;0.10;;;21.20;99.90;;;;;;5075589;28;20035;-77
2021/08/04 09:30:11;;;;;;;1.30;0.10;;;21.30;99.90;;;;;;5075498;28;20103;-76
2021/08/04 09:32:37;;;;;;;1.20;0.10;;;21.40;99.90;;;;;;5093646;28;20373;-76
2021/08/04 09:35:13;;;;;;;1.52;0.35;;;21.50;99.90;;;;;;5093171;28;20021;-76
2021/08/04 09:37:39;;;;;;;1.10;0.10;;;21.70;99.90;;;;;;5093048;28;20081;-76
2021/08/04 09:40:05;;;;;;;1.75;0.10;;;21.70;98.30;;;;;;5093045;28;20473;-76
2021/08/04 09:42:52;;;;;;;3.45;0.57;;;21.70;97.70;;;;;;5093318;28;20035;-76
2021/08/04 09:45:24;;;;;;;1.05;0.30;;;21.40;98.40;;;;;;5093243;28;20024;-76
2021/08/04 09:47:59;;;;;;;0.75;0.20;;;21.50;99.90;;;;;;5076389;28;20034;-76
2021/08/04 09:50:25;;;;;;;1.13;0.17;;;21.60;98.30;;;;;;5096828;28;20039;-76
2021/08/04 09:52:55;;;;;;;1.30;0.10;;;21.60;96.50;;;;;;5096781;28;20024;-76
2021/08/04 09:55:22;;;;;;;0.60;0.08;;;21.70;96.50;;;;;;5096800;28;20020;-76
2021/08/04 09:57:53;;;;;;;1.85;0.55;;;21.90;99.90;;;;;;5096707;28;20016;-76
2021/08/04 10:00:20;;;;;;;2.47;0.28;;;22.10;97.00;;;;;;5096948;28;20024;-76
2021/08/04 10:02:47;;;;;;;1.53;0.27;;;22.30;99.20;;;;;;5096679;28;20028;-76
2021/08/04 10:05:17;;;;;;;2.60;0.00;;;22.70;99.00;;;;;;5078300;28;20028;-76
2021/08/04 10:08:05;;;;;;;0.50;0.00;;;22.90;97.00;;;;;;5096635;28;20035;-76
2021/08/04 10:10:34;;;;;;;0.85;0.30;;;23.10;93.60;;;;;;5078435;28;20114;-77
2021/08/04 10:13:02;;;;;;;2.00;0.10;;;23.20;92.30;;;;;;5078864;28;20061;-78
2021/08/04 10:15:31;;;;;;;0.20;0.10;;;23.30;90.60;;;;;;5097000;28;20095;-78
2021/08/04 10:17:57;;;;;;;1.75;0.22;;;23.40;90.80;;;;;;5078650;28;20505;-77
2021/08/04 10:20:23;;;;;;;0.75;0.10;;;23.20;91.50;;;;;;5078883;28;20038;-78
2021/08/04 10:22:50;;;;;;;2.45;0.10;;;23.00;90.80;;;;;;5096976;28;20024;-78
2021/08/04 10:25:17;;;;;;;0.82;0.40;;;23.00;92.70;;;;;;5096737;28;20111;-79
2021/08/04 10:27:43;;;;;;;0.30;0.00;;;23.10;91.90;;;;;;5096874;28;20103;-78
2021/08/04 10:30:10;;;;;;;0.85;0.00;;;23.40;91.50;;;;;;5096765;28;20066;-78
2021/08/04 10:32:36;;;;;;;0.35;0.10;;;23.60;89.10;;;;;;5078475;28;20032;-77
2021/08/04 10:35:02;;;;;;;1.63;0.30;;;23.60;88.50;;;;;;5096135;28;20089;-77
2021/08/04 10:37:28;;;;;;;0.65;0.10;;;23.60;86.50;;;;;;5077691;28;20487;-77
2021/08/04 10:39:55;;;;;;;1.50;0.45;;;23.40;86.20;;;;;;5095941;28;20017;-76
2021/08/04 10:42:40;;;;;;;2.17;0.50;;;23.10;85.50;;;;;;5096132;28;20020;-78
2021/08/04 10:45:22;;;;;;;2.72;0.28;;;22.90;85.30;;;;;;5096223;28;20097;-77
2021/08/04 10:47:48;;;;;;;2.28;0.08;;;22.70;89.40;;;;;;5078202;28;20031;-77
2021/08/04 10:50:14;;;;;;;2.92;0.30;;;22.50;91.10;;;;;;5096563;28;20024;-76
2021/08/04 10:52:58;;;;;;;0.47;0.22;;;22.30;91.90;;;;;;5095696;28;20465;-76
2021/08/04 10:55:28;;;;;;;1.73;0.05;;;22.10;90.90;;;;;;5096170;28;20024;-77
2021/08/04 10:58:07;;;;;;;1.23;0.10;;;22.00;91.10;;;;;;5077815;28;20012;-78
2021/08/04 11:00:34;;;;;;;0.80;0.00;;;21.90;91.80;;;;;;5076842;28;20024;-77
2021/08/04 11:03:20;;;;;;;3.65;0.90;;;21.80;90.20;;;;;;5108825;22;20442;-75
2021/08/04 11:06:11;;;;;;;0.95;0.00;;;21.60;90.10;;;;;;5095239;28;20056;-76
2021/08/04 11:08:38;;;;;;;1.63;0.00;;;21.40;90.80;;;;;;5077242;28;20077;-74
2021/08/04 11:11:04;;;;;;;0.68;0.00;;;21.40;91.30;;;;;;5096178;28;20466;-78
2021/08/04 11:13:41;;;;;;;0.82;0.15;;;21.30;91.80;;;;;;5095958;28;20070;-74
2021/08/04 11:16:27;;;;;;;0.70;0.10;;;21.20;91.30;;;;;;5096066;28;20358;-80
2021/08/04 11:19:02;;;;;;;1.40;0.00;;;21.30;93.50;;;;;;5096134;28;20036;-78
2021/08/04 11:21:27;;;;;;;0.45;0.10;;;21.30;93.50;;;;;;5095909;28;20028;-76
2021/08/04 11:23:53;;;;;;;2.75;0.10;;;21.30;93.40;;;;;;5077299;28;20503;-76
2021/08/04 11:26:25;;;;;;;0.55;0.00;;;21.30;90.80;;;;;;5095391;28;20027;-74
2021/08/04 11:28:51;;;;;;;2.13;0.28;;;21.30;92.70;;;;;;5095150;28;20016;-75
2021/08/04 11:31:19;;;;;;;1.13;0.10;;;21.30;92.30;;;;;;5095832;28;20362;-76
2021/08/04 11:33:44;;;;;;;0.90;0.10;;;21.40;92.40;;;;;;5094969;28;20020;-76
2021/08/04 11:36:18;;;;;;;1.05;0.13;;;21.40;92.90;;;;;;5095070;28;20474;-77
2021/08/04 11:38:52;;;;;;;0.40;0.00;;;21.50;93.10;;;;;;5094931;28;20069;-76
2021/08/04 11:41:28;;;;;;;0.40;0.10;;;21.50;94.10;;;;;;5095670;28;20424;-77
2021/08/04 11:44:00;;;;;;;1.35;0.20;;;21.70;93.70;;;;;;5078025;28;20024;-77
2021/08/04 11:47:01;;;;;;;0.30;0.05;;;21.70;90.00;;;;;;5095448;28;20099;-75
2021/08/04 11:49:28;;;;;;;1.67;0.10;;;21.90;90.00;;;;;;5080970;28;20036;-76
2021/08/04 11:52:02;;;;;;;1.50;0.00;;;22.00;88.40;;;;;;5095212;28;20374;-80
2021/08/04 11:54:29;;;;;;;0.30;0.25;;;22.10;91.10;;;;;;5095037;28;20101;-80
2021/08/04 11:56:54;;;;;;;0.38;0.05;;;22.20;94.20;;;;;;5095146;28;20023;-78
2021/08/04 11:59:20;;;;;;;0.10;0.00;;;22.30;94.10;;;;;;5076769;28;20409;-78
2021/08/04 12:01:57;;;;;;;0.20;0.10;;;22.30;93.90;;;;;;5076141;28;20032;-75
2021/08/04 12:04:23;;;;;;;0.25;0.00;;;22.40;95.70;;;;;;5076292;28;20024;-77
2021/08/04 12:07:06;;;;;;;3.55;0.75;;;22.30;93.30;;;;;;5094928;28;20028;-75
2021/08/04 12:09:34;;;;;;;0.45;0.00;;;22.20;92.50;;;;;;5094634;28;20032;-74
2021/08/04 12:12:01;;;;;;;1.50;0.10;;;22.10;94.10;;;;;;5093861;28;20420;-76
2021/08/04 12:14:27;;;;;;;1.52;0.00;;;22.00;95.70;;;;;;5094526;28;20028;-75
2021/08/04 12:16:59;;;;;;;0.73;0.10;;;21.90;97.10;;;;;;5076141;28;20470;-79
2021/08/04 12:19:26;;;;;;;3.55;0.35;;;21.80;97.30;;;;;;5094561;28;20103;-80
2021/08/04 12:21:52;;;;;;;1.38;0.15;;;21.70;98.80;;;;;;5094447;28;20019;-79
2021/08/04 12:24:18;;;;;;;3.70;0.22;;;21.60;98.50;;;;;;5094856;28;20020;-78
2021/08/04 12:26:45;;;;;;;1.45;0.20;;;21.50;98.10;;;;;;5094883;28;20031;-77
2021/08/04 12:29:15;;;;;;;0.55;0.10;;;21.40;99.50;;;;;;5094464;28;20100;-78
2021/08/04 12:31:41;;;;;;;1.05;0.10;;;21.40;99.90;;;;;;5095106;28;20046;-76
2021/08/04 12:34:08;;;;;;;1.95;0.50;;;21.20;99.90;;;;;;5076974;28;20028;-78
2021/08/04 12:36:46;;;;;;;0.50;0.00;;;21.10;99.90;;;;;;5095083;28;20516;-78
2021/08/04 12:39:11;;;;;;;0.45;0.15;;;21.10;99.90;;;;;;5094623;28;20066;-78
2021/08/04 12:41:37;;;;;;;0.77;0.17;;;20.90;99.90;;;;;;5093808;28;20032;-76
2021/08/04 12:44:05;;;;;;;0.68;0.30;;;20.90;99.90;;;;;;5094417;28;20020;-76
2021/08/04 12:46:33;;;;;;;1.17;0.13;;;20.90;99.90;;;;;;5094607;28;20024;-80
2021/08/04 12:48:59;;;;;;;1.20;0.10;;;20.80;99.90;;;;;;5075733;28;20020;-77
2021/08/04 12:51:25;;;;;;;2.72;0.10;;;20.80;99.90;;;;;;5094206;28;20086;-78